Time;durP1;ratioP1;P1;durP2;ratioP2;P2;SDS_P1;SDS_P2;PMS_P1;PMS_P2;Temp;Humidity;BMP_temperature;BMP_pressure;BME280_temperature;BME280_humidity;BME280_pressure;Samples;Min_cycle;Max_cycle;Signal;HPM_P1;HPM_P2
2022/09/28 00:00:16;;;;;;;;;;;18.30;99.90;;;;;;4592819;19;20014;-38
2022/09/28 00:02:07;;;;;;;7.45;4.85;;;18.30;99.90;;;;;;4592156;19;19918;-41
2022/09/28 00:03:38;;;;;;;7.13;5.95;;;18.30;99.90;;;;;;4592576;19;20352;-34
2022/09/28 00:05:11;;;;;;;7.00;5.78;;;18.30;99.90;;;;;;4591277;19;20043;-34
2022/09/28 00:06:43;;;;;;;6.75;5.50;;;18.30;99.90;;;;;;4592057;19;20021;-34
2022/09/28 00:08:14;;;;;;;6.55;5.80;;;18.30;99.90;;;;;;4592467;19;20369;-35
2022/09/28 00:09:45;;;;;;;8.00;7.03;;;18.30;99.90;;;;;;4592095;19;20006;-39
2022/09/28 00:11:17;;;;;;;8.57;7.55;;;18.30;99.90;;;;;;4592416;19;20011;-35
2022/09/28 00:12:49;;;;;;;8.05;6.97;;;18.30;99.90;;;;;;4590946;19;20039;-37
2022/09/28 00:14:20;;;;;;;7.43;6.57;;;18.30;99.90;;;;;;4591366;19;20526;-35
2022/09/28 00:16:09;;;;;;;7.78;6.78;;;18.30;99.90;;;;;;4591614;19;20011;-40
2022/09/28 00:17:40;;;;;;;7.00;6.30;;;18.30;99.90;;;;;;4591989;19;20010;-37
2022/09/28 00:19:11;;;;;;;7.90;7.10;;;18.30;99.90;;;;;;4591015;19;20015;-36
2022/09/28 00:20:42;;;;;;;;;;;18.30;99.90;;;;;;4592998;19;20016;-36
2022/09/28 00:22:13;;;;;;;8.48;7.35;;;18.30;99.90;;;;;;4592125;19;19914;-35
2022/09/28 00:25:35;;;;;;;8.13;6.88;;;18.30;99.90;;;;;;4590791;19;20011;-35
2022/09/28 00:27:08;;;;;;;9.85;7.45;;;18.30;99.90;;;;;;4589302;19;20066;-34
2022/09/28 00:28:39;;;;;;;9.60;7.85;;;18.30;99.90;;;;;;4591702;19;20012;-36
2022/09/28 00:30:10;;;;;;;8.88;7.95;;;18.30;99.90;;;;;;4591674;19;20018;-39
2022/09/28 00:31:41;;;;;;;9.40;7.65;;;18.30;99.90;;;;;;4592180;19;20022;-34
2022/09/28 00:33:12;;;;;;;10.38;9.25;;;18.30;99.90;;;;;;4592319;19;20021;-39
2022/09/28 00:34:47;;;;;;;11.48;10.27;;;18.30;99.90;;;;;;4591996;19;20033;-33
2022/09/28 00:36:19;;;;;;;12.30;11.10;;;18.30;99.90;;;;;;4591417;19;20015;-36
2022/09/28 00:37:51;;;;;;;12.73;11.32;;;18.30;99.90;;;;;;4591870;19;20039;-38
2022/09/28 00:39:22;;;;;;;;;;;18.20;99.90;;;;;;4593096;19;20027;-36
2022/09/28 00:40:54;;;;;;;14.63;12.10;;;18.20;99.90;;;;;;4590834;19;19915;-39
2022/09/28 00:42:25;;;;;;;12.68;11.38;;;18.20;99.90;;;;;;4591472;19;20018;-35
2022/09/28 00:44:24;;;;;;;13.70;12.25;;;18.20;99.90;;;;;;4591983;19;20029;-39
2022/09/28 00:46:01;;;;;;;15.32;12.93;;;18.20;99.90;;;;;;4591530;19;20494;-34
2022/09/28 00:47:48;;;;;;;13.75;12.32;;;18.20;99.90;;;;;;4590204;19;20330;-36
2022/09/28 00:49:26;;;;;;;15.23;13.35;;;18.20;99.90;;;;;;4591165;19;20010;-33
2022/09/28 00:50:58;;;;;;;15.82;13.00;;;18.20;99.90;;;;;;4590232;19;20014;-36
2022/09/28 00:52:35;;;;;;;14.35;12.55;;;18.20;99.90;;;;;;4590341;19;20017;-37
2022/09/28 00:54:06;;;;;;;15.93;13.20;;;18.20;99.90;;;;;;4591639;19;20001;-37
2022/09/28 00:55:41;;;;;;;15.80;13.10;;;18.20;99.90;;;;;;4590390;19;20013;-40
2022/09/28 00:57:12;;;;;;;14.02;12.18;;;18.20;99.90;;;;;;4590732;19;20035;-35
2022/09/28 00:58:45;;;;;;;13.63;12.23;;;18.20;99.90;;;;;;4589601;19;20010;-35
2022/09/28 01:00:16;;;;;;;13.18;11.65;;;18.20;99.90;;;;;;4591165;19;20028;-40
2022/09/28 01:01:48;;;;;;;15.52;12.98;;;18.20;99.90;;;;;;4590204;19;20014;-33
2022/09/28 01:03:19;;;;;;;15.93;12.93;;;18.20;99.90;;;;;;4590863;19;20472;-37
2022/09/28 01:04:51;;;;;;;14.48;12.35;;;18.20;99.90;;;;;;4591512;19;20480;-37
2022/09/28 01:06:23;;;;;;;14.65;13.07;;;18.20;99.90;;;;;;4590101;19;20014;-36
2022/09/28 01:07:54;;;;;;;16.90;13.68;;;18.20;99.90;;;;;;4589823;19;20010;-35
2022/09/28 01:09:26;;;;;;;13.23;11.93;;;18.20;99.90;;;;;;4590073;19;20010;-39
2022/09/28 01:10:58;;;;;;;;;;;18.20;99.90;;;;;;4590754;19;20010;-37
2022/09/28 01:12:29;;;;;;;14.98;12.48;;;18.20;99.90;;;;;;4589960;19;20268;-38
2022/09/28 01:14:00;;;;;;;15.75;14.10;;;18.20;99.90;;;;;;4589795;19;20006;-33
2022/09/28 01:15:31;;;;;;;15.80;13.95;;;18.20;99.90;;;;;;4590471;19;20014;-38
2022/09/28 01:17:47;;;;;;;19.83;14.82;;;18.20;99.90;;;;;;4589682;19;20426;-37
2022/09/28 01:19:50;;;;;;;14.05;12.60;;;18.20;99.90;;;;;;4588020;19;20014;-37
2022/09/28 01:21:24;;;;;;;15.43;13.88;;;18.20;99.90;;;;;;4588214;19;20010;-37
2022/09/28 01:23:26;;;;;;;14.93;13.40;;;18.20;99.90;;;;;;4588647;19;20108;-34
2022/09/28 01:25:03;;;;;;;16.88;14.38;;;18.20;99.90;;;;;;4588785;19;20027;-37
2022/09/28 01:26:52;;;;;;;15.13;13.48;;;18.20;99.90;;;;;;4588187;19;20029;-37
2022/09/28 01:28:25;;;;;;;15.45;13.73;;;18.20;99.90;;;;;;4588173;19;20569;-36
2022/09/28 01:30:15;;;;;;;14.88;13.38;;;18.20;99.90;;;;;;4588066;19;20007;-34
2022/09/28 01:31:51;;;;;;;15.38;13.77;;;18.20;99.90;;;;;;4588104;19;20017;-35
2022/09/28 01:33:25;;;;;;;15.73;13.77;;;18.10;99.90;;;;;;4588707;19;20015;-36
2022/09/28 01:35:06;;;;;;;15.52;13.93;;;18.20;99.90;;;;;;4588187;19;20010;-36
2022/09/28 01:36:43;;;;;;;15.88;14.10;;;18.20;99.90;;;;;;4588281;19;20480;-35
2022/09/28 01:38:18;;;;;;;16.63;14.32;;;18.20;99.90;;;;;;4587007;19;20116;-35
2022/09/28 01:39:49;;;;;;;16.85;14.30;;;18.20;99.90;;;;;;4587424;19;20508;-36
2022/09/28 01:41:21;;;;;;;15.50;13.88;;;18.20;99.90;;;;;;4587141;19;20014;-36
2022/09/28 01:42:55;;;;;;;16.10;14.40;;;18.20;99.90;;;;;;4588012;19;20093;-34
2022/09/28 01:44:27;;;;;;;15.98;14.05;;;18.20;99.90;;;;;;4587729;19;20024;-36
2022/09/28 01:46:37;;;;;;;18.58;15.65;;;18.20;99.90;;;;;;4588410;19;20031;-33
2022/09/28 01:48:09;;;;;;;16.83;14.43;;;18.20;99.90;;;;;;4588311;19;20018;-39
2022/09/28 01:49:45;;;;;;;17.17;14.40;;;18.20;99.90;;;;;;4587587;19;20014;-38
2022/09/28 01:51:25;;;;;;;16.63;14.80;;;18.10;99.90;;;;;;4587874;19;20070;-36
2022/09/28 01:53:23;;;;;;;16.85;14.95;;;18.20;99.90;;;;;;4588385;19;20027;-34
2022/09/28 01:55:05;;;;;;;16.40;14.70;;;18.20;99.90;;;;;;4587730;19;20062;-33
2022/09/28 01:56:44;;;;;;;17.10;15.30;;;18.20;99.90;;;;;;4587768;19;20098;-38
2022/09/28 01:58:48;;;;;;;20.00;17.45;;;18.20;99.90;;;;;;4587974;19;20019;-41
2022/09/28 02:00:20;;;;;;;17.50;15.70;;;18.20;99.90;;;;;;4587957;19;20015;-39
2022/09/28 02:01:58;;;;;;;17.25;15.55;;;18.20;99.90;;;;;;4587589;19;20029;-33
2022/09/28 02:03:37;;;;;;;16.27;14.57;;;18.10;99.90;;;;;;4587719;19;20017;-38
2022/09/28 02:05:13;;;;;;;18.88;15.73;;;18.20;99.90;;;;;;4587571;19;20011;-43
2022/09/28 02:06:56;;;;;;;18.40;15.10;;;18.20;99.90;;;;;;4588592;19;19995;-38
2022/09/28 02:08:35;;;;;;;18.60;16.70;;;18.20;99.90;;;;;;4587740;19;19995;-39
2022/09/28 02:10:09;;;;;;;17.88;15.25;;;18.20;99.90;;;;;;4587458;19;20070;-38
2022/09/28 02:11:44;;;;;;;17.58;15.07;;;18.20;99.90;;;;;;4587699;19;20018;-35
2022/09/28 02:13:20;;;;;;;18.90;17.00;;;18.20;99.90;;;;;;4587615;19;20040;-34
2022/09/28 02:14:53;;;;;;;18.25;16.33;;;18.20;99.90;;;;;;4588014;19;20003;-35
2022/09/28 02:16:30;;;;;;;16.33;14.70;;;18.20;99.90;;;;;;4587463;19;20386;-34
2022/09/28 02:18:01;;;;;;;15.82;14.18;;;18.20;99.90;;;;;;4587413;19;20038;-41
2022/09/28 02:19:32;;;;;;;16.42;14.70;;;18.20;99.90;;;;;;4587440;19;20022;-37
2022/09/28 02:21:12;;;;;;;15.93;14.10;;;18.20;99.90;;;;;;4587611;19;20370;-42
2022/09/28 02:22:48;;;;;;;17.50;15.60;;;18.20;99.90;;;;;;4587398;19;20477;-36
2022/09/28 02:24:37;;;;;;;19.15;17.02;;;18.20;99.90;;;;;;4587348;19;20022;-36
2022/09/28 02:26:10;;;;;;;17.92;16.00;;;18.20;99.90;;;;;;4587762;19;20065;-40
2022/09/28 02:28:03;;;;;;;17.13;15.32;;;18.20;99.90;;;;;;4587614;19;20014;-36
2022/09/28 02:29:34;;;;;;;17.30;15.55;;;18.20;99.90;;;;;;4587715;19;20005;-40
2022/09/28 02:31:05;;;;;;;19.13;17.23;;;18.20;99.90;;;;;;4587281;19;20037;-36
2022/09/28 02:32:39;;;;;;;18.63;16.73;;;18.20;99.90;;;;;;4587196;19;20019;-34
2022/09/28 02:34:10;;;;;;;17.95;16.25;;;18.20;99.90;;;;;;4587622;19;20090;-34
2022/09/28 02:35:41;;;;;;;17.83;16.05;;;18.20;99.90;;;;;;4587375;19;20396;-40
2022/09/28 02:37:12;;;;;;;16.67;14.88;;;18.20;99.90;;;;;;4589647;19;20472;-39
2022/09/28 02:38:44;;;;;;;16.65;14.80;;;18.20;99.90;;;;;;4587476;19;20377;-36
2022/09/28 02:40:27;;;;;;;17.83;16.10;;;18.10;99.90;;;;;;4587414;19;20018;-37
2022/09/28 02:42:05;;;;;;;18.27;16.48;;;18.10;99.90;;;;;;4589079;19;20054;-36
2022/09/28 02:44:03;;;;;;;16.90;15.23;;;18.20;99.90;;;;;;4589117;19;20027;-36
2022/09/28 02:45:53;;;;;;;15.75;14.15;;;18.20;99.90;;;;;;4589097;19;20022;-38
2022/09/28 02:47:43;;;;;;;16.45;14.75;;;18.20;99.90;;;;;;4589498;19;20576;-39
2022/09/28 02:49:17;;;;;;;15.30;13.73;;;18.10;99.90;;;;;;4589308;19;20015;-33
2022/09/28 02:51:02;;;;;;;15.30;13.80;;;18.10;99.90;;;;;;4593042;19;20020;-37
2022/09/28 02:52:52;;;;;;;15.15;13.65;;;18.10;99.90;;;;;;4593030;19;20014;-34
2022/09/28 02:54:23;;;;;;;15.20;13.70;;;18.10;99.90;;;;;;4594030;19;20007;-33
2022/09/28 02:56:16;;;;;;;14.10;12.80;;;18.10;99.90;;;;;;4594025;19;20500;-35
2022/09/28 02:57:56;;;;;;;14.25;12.85;;;18.10;99.90;;;;;;4594058;19;20013;-37
2022/09/28 02:59:55;;;;;;;14.85;13.35;;;18.20;99.90;;;;;;4594483;19;20011;-39
2022/09/28 03:01:32;;;;;;;13.85;12.43;;;18.20;99.90;;;;;;4594089;19;20484;-36
2022/09/28 03:03:17;;;;;;;13.98;12.68;;;18.20;99.90;;;;;;4593812;19;19998;-37
2022/09/28 03:05:06;;;;;;;16.35;14.30;;;18.20;99.90;;;;;;4593904;19;20002;-38
2022/09/28 03:06:46;;;;;;;14.82;13.43;;;18.20;99.90;;;;;;4593406;19;20010;-38
2022/09/28 03:08:40;;;;;;;15.23;13.65;;;18.20;99.90;;;;;;4592459;19;20021;-35
2022/09/28 03:10:20;;;;;;;15.23;13.73;;;18.30;99.90;;;;;;4593193;19;20082;-42
2022/09/28 03:11:59;;;;;;;15.43;13.98;;;18.30;99.90;;;;;;4593811;19;20030;-36
2022/09/28 03:13:30;;;;;;;15.52;13.93;;;18.30;99.90;;;;;;4592078;19;20398;-35
2022/09/28 03:15:21;;;;;;;15.77;14.27;;;18.30;99.90;;;;;;4592162;19;20017;-37
2022/09/28 03:16:52;;;;;;;16.17;14.45;;;18.20;99.90;;;;;;4593315;19;20014;-37
2022/09/28 03:18:23;;;;;;;15.27;13.77;;;18.20;99.90;;;;;;4593411;19;20010;-39
2022/09/28 03:19:54;;;;;;;15.05;13.65;;;18.30;99.90;;;;;;4593816;19;20014;-38
2022/09/28 03:21:25;;;;;;;15.23;13.82;;;18.20;99.90;;;;;;4593234;19;20036;-36
2022/09/28 03:22:57;;;;;;;13.07;11.82;;;18.30;99.90;;;;;;4593160;19;20014;-35
2022/09/28 03:24:28;;;;;;;15.18;13.60;;;18.30;99.90;;;;;;4592082;19;20373;-35
2022/09/28 03:25:59;;;;;;;13.60;12.27;;;18.20;99.90;;;;;;4593461;19;20002;-40
2022/09/28 03:27:30;;;;;;;13.73;12.35;;;18.30;99.90;;;;;;4590588;19;20376;-36
2022/09/28 03:29:01;;;;;;;13.00;11.73;;;18.20;99.90;;;;;;4592696;19;20011;-36
2022/09/28 03:30:32;;;;;;;11.40;10.40;;;18.20;99.90;;;;;;4591725;19;20018;-35
2022/09/28 03:32:03;;;;;;;12.07;10.88;;;18.30;99.90;;;;;;4592718;19;20039;-37
2022/09/28 03:33:35;;;;;;;11.98;10.75;;;18.30;99.90;;;;;;4591688;19;20479;-38
2022/09/28 03:35:06;;;;;;;;;;;18.20;99.90;;;;;;4593496;19;20017;-37
2022/09/28 03:36:37;;;;;;;13.85;12.55;;;18.20;99.90;;;;;;4593658;19;19925;-36
2022/09/28 03:38:08;;;;;;;13.80;12.50;;;18.20;99.90;;;;;;4592808;19;20010;-34
2022/09/28 03:39:39;;;;;;;13.27;11.98;;;18.20;99.90;;;;;;4591605;19;20018;-36
2022/09/28 03:41:11;;;;;;;12.88;11.50;;;18.20;99.90;;;;;;4590367;19;20010;-36
2022/09/28 03:42:42;;;;;;;11.73;10.63;;;18.20;99.90;;;;;;4592499;19;20011;-39
2022/09/28 03:44:13;;;;;;;11.85;10.75;;;18.20;99.90;;;;;;4592753;19;20015;-36
2022/09/28 03:45:51;;;;;;;11.30;10.20;;;18.20;99.90;;;;;;4594607;19;20464;-39
2022/09/28 03:47:23;;;;;;;12.50;11.20;;;18.20;99.90;;;;;;4594530;19;20014;-40
2022/09/28 03:48:57;;;;;;;10.82;9.82;;;18.20;99.90;;;;;;4594753;19;20021;-34
2022/09/28 03:50:28;;;;;;;12.20;10.95;;;18.30;99.90;;;;;;4594047;19;20358;-34
2022/09/28 03:51:59;;;;;;;11.45;10.45;;;18.30;99.90;;;;;;4591592;19;20430;-34
2022/09/28 03:53:31;;;;;;;12.43;11.23;;;18.20;99.90;;;;;;4591580;19;20033;-42
2022/09/28 03:55:03;;;;;;;12.18;10.88;;;18.30;99.90;;;;;;4592071;19;20459;-35
2022/09/28 03:56:34;;;;;;;10.90;9.77;;;18.20;99.90;;;;;;4593538;19;20070;-40
2022/09/28 03:58:05;;;;;;;11.10;9.93;;;18.20;99.90;;;;;;4593584;19;20043;-35
2022/09/28 03:59:37;;;;;;;11.95;10.73;;;18.20;99.90;;;;;;4594399;19;20232;-39
2022/09/28 04:01:11;;;;;;;11.30;10.20;;;18.20;99.90;;;;;;4594341;19;20062;-36
2022/09/28 04:02:42;;;;;;;11.10;10.00;;;18.20;99.90;;;;;;4594143;19;20362;-40
2022/09/28 04:04:13;;;;;;;11.73;10.55;;;18.20;99.90;;;;;;4594687;19;20010;-36
2022/09/28 04:05:49;;;;;;;13.23;11.93;;;18.20;99.90;;;;;;4593143;19;20360;-41
2022/09/28 04:07:20;;;;;;;11.45;10.30;;;18.20;99.90;;;;;;4593256;19;20483;-39
2022/09/28 04:08:51;;;;;;;11.60;10.50;;;18.20;99.90;;;;;;4594228;19;20495;-37
2022/09/28 04:10:23;;;;;;;11.75;10.63;;;18.20;99.90;;;;;;4592812;19;20506;-37
2022/09/28 04:11:54;;;;;;;13.32;12.05;;;18.20;99.90;;;;;;4593962;19;20373;-37
2022/09/28 04:13:26;;;;;;;12.65;11.35;;;18.20;99.90;;;;;;4594107;19;20031;-39
2022/09/28 04:14:57;;;;;;;12.00;10.50;;;18.20;99.90;;;;;;4593948;19;20116;-34
2022/09/28 04:16:28;;;;;;;10.80;9.70;;;18.20;99.90;;;;;;4593955;19;20014;-40
2022/09/28 04:18:00;;;;;;;10.60;9.60;;;18.20;99.90;;;;;;4594257;19;20015;-37
2022/09/28 04:19:31;;;;;;;11.10;10.00;;;18.20;99.90;;;;;;4594192;19;20041;-36
2022/09/28 04:21:05;;;;;;;10.95;9.85;;;18.20;99.90;;;;;;4593854;19;20487;-39
2022/09/28 04:22:37;;;;;;;11.30;10.20;;;18.30;99.90;;;;;;4593245;19;20046;-40
2022/09/28 04:24:10;;;;;;;11.07;10.05;;;18.30;99.90;;;;;;4594276;19;20011;-36
2022/09/28 04:25:46;;;;;;;10.82;9.80;;;18.30;99.90;;;;;;4593634;19;20504;-35
2022/09/28 04:29:16;;;;;;;11.07;9.35;;;18.30;99.90;;;;;;4590415;19;20022;-37
2022/09/28 04:30:47;;;;;;;9.77;8.88;;;18.30;99.90;;;;;;4591268;19;20002;-37
2022/09/28 04:32:18;;;;;;;9.40;8.50;;;18.30;99.90;;;;;;4591762;19;20029;-37
2022/09/28 04:33:50;;;;;;;9.63;8.73;;;18.30;99.90;;;;;;4591755;19;20011;-35
2022/09/28 04:35:21;;;;;;;10.50;9.50;;;18.30;99.90;;;;;;4591737;19;20010;-35
2022/09/28 04:36:52;;;;;;;9.95;9.02;;;18.30;99.90;;;;;;4591856;19;20013;-36
2022/09/28 04:38:23;;;;;;;10.30;9.23;;;18.30;99.90;;;;;;4590398;19;20098;-36
2022/09/28 04:39:54;;;;;;;9.73;8.80;;;18.30;99.90;;;;;;4591394;19;20025;-38
2022/09/28 04:41:26;;;;;;;10.13;9.13;;;18.20;99.90;;;;;;4589694;19;20476;-39
2022/09/28 04:42:57;;;;;;;11.75;9.43;;;18.30;99.90;;;;;;4590770;19;20122;-39
2022/09/28 04:44:28;;;;;;;10.68;9.65;;;18.30;99.90;;;;;;4588082;19;20014;-37
2022/09/28 04:46:00;;;;;;;10.40;9.40;;;18.30;99.90;;;;;;4590936;19;20011;-39
2022/09/28 04:47:31;;;;;;;9.63;8.73;;;18.30;99.90;;;;;;4589952;19;20070;-36
2022/09/28 04:49:05;;;;;;;9.52;8.63;;;18.20;99.90;;;;;;4588381;19;20035;-37
2022/09/28 04:50:36;;;;;;;10.25;9.25;;;18.30;99.90;;;;;;4588781;19;20018;-35
2022/09/28 04:52:08;;;;;;;9.95;8.98;;;18.30;99.90;;;;;;4590988;19;20041;-35
2022/09/28 04:53:39;;;;;;;9.18;8.27;;;18.20;99.90;;;;;;4589953;19;20017;-39
2022/09/28 04:55:13;;;;;;;9.88;9.00;;;18.20;99.90;;;;;;4591402;19;20022;-37
2022/09/28 04:56:44;;;;;;;8.98;8.18;;;18.20;99.90;;;;;;4590809;19;20018;-38
2022/09/28 04:58:19;;;;;;;9.43;8.52;;;18.20;99.90;;;;;;4590268;19;20018;-36
2022/09/28 04:59:50;;;;;;;9.63;8.13;;;18.20;99.90;;;;;;4590320;19;20010;-39
2022/09/28 05:01:22;;;;;;;9.40;8.50;;;18.20;99.90;;;;;;4591839;19;20007;-38
2022/09/28 05:02:54;;;;;;;9.52;8.73;;;18.20;99.90;;;;;;4591152;19;20022;-36
2022/09/28 05:04:25;;;;;;;8.43;7.63;;;18.20;99.90;;;;;;4589527;19;20019;-40
2022/09/28 05:05:56;;;;;;;8.98;8.07;;;18.20;99.90;;;;;;4590345;19;20062;-36
2022/09/28 05:07:28;;;;;;;9.10;8.20;;;18.30;99.90;;;;;;4587741;19;20055;-34
2022/09/28 05:08:58;;;;;;;8.70;7.75;;;18.30;99.90;;;;;;4590280;19;20014;-35
2022/09/28 05:10:29;;;;;;;8.65;7.75;;;18.30;99.90;;;;;;4590378;19;20028;-36
2022/09/28 05:12:01;;;;;;;9.45;8.48;;;18.30;99.90;;;;;;4590759;19;20014;-35
2022/09/28 05:13:34;;;;;;;10.35;9.35;;;18.30;99.90;;;;;;4587403;19;20026;-39
2022/09/28 05:15:05;;;;;;;10.18;9.20;;;18.30;99.90;;;;;;4589134;19;20009;-35
2022/09/28 05:16:37;;;;;;;11.05;9.85;;;18.40;99.90;;;;;;4590460;19;20584;-39
2022/09/28 05:18:08;;;;;;;10.27;9.27;;;18.40;99.90;;;;;;4588274;19;20459;-35
2022/09/28 05:19:39;;;;;;;13.05;11.77;;;18.50;99.90;;;;;;4589329;19;20017;-41
2022/09/28 05:21:14;;;;;;;13.95;12.70;;;18.50;99.90;;;;;;4589048;19;20010;-37
2022/09/28 05:22:45;;;;;;;13.35;11.95;;;18.40;99.90;;;;;;4589680;19;20070;-34
2022/09/28 05:24:16;;;;;;;10.07;9.07;;;18.50;99.90;;;;;;4588956;19;20017;-37
2022/09/28 05:25:47;;;;;;;10.60;8.85;;;18.40;99.90;;;;;;4591695;19;20022;-37
2022/09/28 05:27:18;;;;;;;13.30;12.10;;;18.40;99.90;;;;;;4590380;19;20017;-37
2022/09/28 05:28:50;;;;;;;13.68;12.38;;;17.90;99.90;;;;;;4591133;19;20010;-35
2022/09/28 05:30:21;;;;;;;15.27;13.77;;;16.30;99.90;;;;;;4589287;19;20014;-35
2022/09/28 05:31:53;;;;;;;16.48;14.77;;;15.40;99.90;;;;;;4588860;19;20015;-35
2022/09/28 05:33:24;;;;;;;17.77;15.98;;;15.00;99.90;;;;;;4588691;19;20010;-36
2022/09/28 05:34:55;;;;;;;19.95;17.85;;;14.80;99.90;;;;;;4588602;19;20407;-38
2022/09/28 05:36:26;;;;;;;22.88;20.58;;;14.70;99.90;;;;;;4591126;19;20041;-34
2022/09/28 05:38:02;;;;;;;19.83;17.70;;;14.60;99.90;;;;;;4589204;19;20551;-38
2022/09/28 05:39:33;;;;;;;21.27;18.77;;;14.60;99.90;;;;;;4589530;19;20379;-35
2022/09/28 05:41:04;;;;;;;22.90;19.83;;;14.50;99.90;;;;;;4589471;19;20018;-39
2022/09/28 05:42:35;;;;;;;21.23;18.33;;;14.50;99.90;;;;;;4589572;19;20010;-35
2022/09/28 05:44:07;;;;;;;21.58;17.98;;;14.50;99.90;;;;;;4589685;19;20035;-34
2022/09/28 05:45:38;;;;;;;20.15;17.75;;;14.50;99.90;;;;;;4590636;19;20010;-38
2022/09/28 05:47:09;;;;;;;21.33;18.23;;;14.40;99.90;;;;;;4589623;19;20045;-34
2022/09/28 05:48:40;;;;;;;22.27;18.50;;;14.40;99.90;;;;;;4589315;19;20082;-34
2022/09/28 05:50:14;;;;;;;25.13;19.33;;;14.40;99.90;;;;;;4588454;19;20014;-36
2022/09/28 05:51:45;;;;;;;24.17;21.00;;;14.40;99.90;;;;;;4589476;19;20039;-33
2022/09/28 05:53:16;;;;;;;24.75;20.50;;;14.40;99.90;;;;;;4590093;19;20007;-34
2022/09/28 05:54:47;;;;;;;24.00;20.10;;;14.30;99.90;;;;;;4590106;19;20014;-36
2022/09/28 05:56:19;;;;;;;26.60;22.27;;;14.30;99.90;;;;;;4589950;19;20014;-37
2022/09/28 05:57:50;;;;;;;25.45;21.55;;;14.30;99.90;;;;;;4590448;19;20018;-35
2022/09/28 05:59:21;;;;;;;24.45;20.23;;;14.30;99.90;;;;;;4588654;19;20467;-37
2022/09/28 06:00:55;;;;;;;24.02;19.88;;;14.30;99.90;;;;;;4590415;19;20027;-40
2022/09/28 06:02:26;;;;;;;24.17;19.70;;;14.30;99.90;;;;;;4589435;19;20484;-36
2022/09/28 06:03:57;;;;;;;26.25;20.77;;;14.30;99.90;;;;;;4588792;19;20014;-35
2022/09/28 06:05:30;;;;;;;23.33;17.98;;;14.30;99.90;;;;;;4589569;19;20015;-36
2022/09/28 06:07:02;;;;;;;22.37;16.13;;;14.70;99.90;;;;;;4587866;19;20090;-39
2022/09/28 06:08:35;;;;;;;20.15;15.68;;;15.20;99.90;;;;;;4589406;19;20497;-38
2022/09/28 06:10:07;;;;;;;18.40;13.65;;;15.60;99.90;;;;;;4589254;19;20014;-34
2022/09/28 06:11:40;;;;;;;20.70;14.68;;;15.90;99.90;;;;;;4589931;19;20467;-34
2022/09/28 06:13:13;;;;;;;17.75;14.20;;;16.20;99.90;;;;;;4589753;19;20015;-37
2022/09/28 06:14:46;;;;;;;21.30;15.77;;;16.40;99.90;;;;;;4590590;19;20019;-35
2022/09/28 06:16:18;;;;;;;20.35;14.50;;;16.60;99.90;;;;;;4590002;19;20347;-37
2022/09/28 06:18:00;;;;;;;22.90;14.60;;;16.80;99.90;;;;;;4588996;19;20023;-36
2022/09/28 06:19:31;;;;;;;18.45;15.05;;;17.00;99.90;;;;;;4586253;19;20786;-34
2022/09/28 06:21:04;;;;;;;17.40;14.27;;;17.20;99.90;;;;;;4588419;19;20018;-33
2022/09/28 06:22:37;;;;;;;15.82;12.45;;;17.30;99.90;;;;;;4587533;19;20030;-39
2022/09/28 06:24:08;;;;;;;13.38;11.85;;;17.40;99.90;;;;;;4590279;19;20512;-38
2022/09/28 06:25:40;;;;;;;16.38;11.70;;;17.50;99.90;;;;;;4594579;19;20018;-38
2022/09/28 06:27:11;;;;;;;15.90;12.82;;;17.60;99.90;;;;;;4594657;19;20074;-36
2022/09/28 06:28:43;;;;;;;14.70;11.35;;;17.70;99.90;;;;;;4593996;19;20030;-35
2022/09/28 06:30:14;;;;;;;12.82;10.95;;;17.80;99.90;;;;;;4592647;19;20015;-35
2022/09/28 06:31:46;;;;;;;13.38;10.80;;;17.80;99.90;;;;;;4594631;19;20013;-36
2022/09/28 06:33:17;;;;;;;13.13;11.05;;;17.90;99.90;;;;;;4594288;19;20006;-38
2022/09/28 06:34:48;;;;;;;10.07;9.18;;;18.00;99.90;;;;;;4593718;19;20537;-38
2022/09/28 06:36:19;;;;;;;11.63;10.43;;;17.20;99.90;;;;;;4593701;19;20452;-34
2022/09/28 06:37:51;;;;;;;14.07;12.57;;;15.90;99.90;;;;;;4593261;19;20015;-37
2022/09/28 06:39:22;;;;;;;13.48;12.07;;;15.30;99.90;;;;;;4591042;19;20018;-36
2022/09/28 06:40:55;;;;;;;14.32;12.85;;;15.00;99.90;;;;;;4592823;19;20073;-37
2022/09/28 06:42:26;;;;;;;12.93;11.63;;;14.90;99.90;;;;;;4593600;19;20377;-36
2022/09/28 06:43:57;;;;;;;13.35;11.95;;;14.80;99.90;;;;;;4595500;19;20006;-36
2022/09/28 06:45:29;;;;;;;13.68;11.75;;;14.70;99.90;;;;;;4593969;19;20006;-36
2022/09/28 06:47:00;;;;;;;13.30;12.00;;;14.70;99.90;;;;;;4590481;19;20019;-36
2022/09/28 06:48:32;;;;;;;13.75;12.32;;;14.70;99.90;;;;;;4593754;19;20017;-35
2022/09/28 06:50:13;;;;;;;18.63;14.23;;;14.60;99.90;;;;;;4593488;19;19998;-34
2022/09/28 06:51:45;;;;;;;17.20;14.90;;;14.60;99.90;;;;;;4593530;19;20018;-34
2022/09/28 06:53:16;;;;;;;15.50;13.98;;;14.60;99.90;;;;;;4594155;19;20026;-36
2022/09/28 06:54:47;;;;;;;22.08;19.58;;;14.60;99.90;;;;;;4593741;19;20014;-36
2022/09/28 06:56:19;;;;;;;26.85;22.25;;;14.60;99.90;;;;;;4593920;19;20066;-36
2022/09/28 06:58:01;;;;;;;27.30;22.97;;;14.60;99.90;;;;;;4593671;19;20011;-38
2022/09/28 06:59:33;;;;;;;29.48;24.67;;;14.50;99.90;;;;;;4590780;19;20043;-37
2022/09/28 07:01:05;;;;;;;24.93;22.20;;;14.60;99.90;;;;;;4593566;19;20014;-35
2022/09/28 07:02:36;;;;;;;25.77;22.95;;;14.50;99.90;;;;;;4593925;19;20333;-35
2022/09/28 07:04:07;;;;;;;27.10;23.00;;;14.50;99.90;;;;;;4593393;19;20022;-36
2022/09/28 07:05:43;;;;;;;24.35;20.35;;;14.50;99.90;;;;;;4593655;19;20010;-33
2022/09/28 07:07:14;;;;;;;23.77;20.23;;;14.50;99.90;;;;;;4592041;19;20499;-36
2022/09/28 07:08:45;;;;;;;23.45;20.95;;;14.50;99.90;;;;;;4593336;19;20021;-34
2022/09/28 07:10:17;;;;;;;20.92;18.67;;;14.50;99.90;;;;;;4593488;19;20066;-34
2022/09/28 07:11:48;;;;;;;21.50;19.17;;;14.50;99.90;;;;;;4593729;19;20006;-33
2022/09/28 07:13:19;;;;;;;23.58;20.70;;;14.50;99.90;;;;;;4594163;19;20395;-36
2022/09/28 07:14:55;;;;;;;23.63;20.73;;;14.40;99.90;;;;;;4593704;19;20348;-34
2022/09/28 07:16:27;;;;;;;24.87;20.53;;;14.50;99.90;;;;;;4593514;19;20015;-33
2022/09/28 07:18:02;;;;;;;25.17;21.60;;;14.50;99.90;;;;;;4593356;19;20017;-36
2022/09/28 07:19:35;;;;;;;29.33;24.97;;;14.50;99.90;;;;;;4590324;19;20472;-36
2022/09/28 07:21:06;;;;;;;30.80;24.60;;;14.50;99.90;;;;;;4593326;19;20002;-37
2022/09/28 07:22:38;;;;;;;32.00;26.10;;;14.50;99.90;;;;;;4592947;19;20011;-40
2022/09/28 07:24:11;;;;;;;33.45;26.67;;;14.50;99.90;;;;;;4592593;19;20027;-34
2022/09/28 07:25:44;;;;;;;33.00;26.43;;;14.50;99.90;;;;;;4592801;19;20007;-34
2022/09/28 07:27:15;;;;;;;33.67;27.10;;;14.50;99.90;;;;;;4593008;19;20015;-36
2022/09/28 07:28:47;;;;;;;32.40;25.73;;;14.50;99.90;;;;;;4591997;19;20014;-34
2022/09/28 07:30:19;;;;;;;31.90;26.27;;;14.40;99.90;;;;;;4592337;19;20012;-33
2022/09/28 07:31:52;;;;;;;33.60;26.77;;;14.40;99.90;;;;;;4593600;19;20006;-38
2022/09/28 07:33:26;;;;;;;42.13;29.70;;;14.50;99.90;;;;;;4591710;19;20014;-35
2022/09/28 07:34:58;;;;;;;42.37;31.37;;;14.50;99.90;;;;;;4592265;19;20022;-35
2022/09/28 07:36:30;;;;;;;42.80;30.42;;;14.40;99.90;;;;;;4591759;19;20472;-35
2022/09/28 07:38:02;;;;;;;39.97;29.77;;;14.40;99.90;;;;;;4593259;19;20011;-34
2022/09/28 07:41:10;;;;;;;41.33;27.43;;;14.40;99.90;;;;;;4590862;19;20463;-38
2022/09/28 07:41:31;;;;;;;29.23;22.67;;;14.50;99.90;;;;;;4591305;19;20019;-36
2022/09/28 07:43:04;;;;;;;26.00;18.10;;;14.50;99.90;;;;;;4592066;19;20011;-36
2022/09/28 07:44:36;;;;;;;25.40;18.77;;;14.50;99.90;;;;;;4593432;19;20098;-33
2022/09/28 07:46:10;;;;;;;23.67;17.90;;;14.50;99.90;;;;;;4591587;19;20365;-38
2022/09/28 07:47:42;;;;;;;22.77;16.37;;;14.50;99.90;;;;;;4592433;19;20027;-35
2022/09/28 07:49:15;;;;;;;21.85;16.92;;;14.50;99.90;;;;;;4592628;19;20014;-34
2022/09/28 07:50:50;;;;;;;19.13;15.70;;;14.50;99.90;;;;;;4592068;19;20027;-37
2022/09/28 07:52:25;;;;;;;19.27;15.53;;;14.50;99.90;;;;;;4591489;19;20082;-37
2022/09/28 07:53:56;;;;;;;19.30;15.93;;;14.50;99.90;;;;;;4592164;19;20078;-35
2022/09/28 07:55:27;;;;;;;20.38;15.85;;;14.50;99.90;;;;;;4592542;19;20389;-32
2022/09/28 07:56:58;;;;;;;18.92;15.60;;;14.50;99.90;;;;;;4592583;19;20018;-34
2022/09/28 07:58:31;;;;;;;19.75;15.15;;;14.50;99.90;;;;;;4590790;19;20467;-33
2022/09/28 08:00:05;;;;;;;16.80;14.27;;;14.50;99.90;;;;;;4591383;19;20011;-35
2022/09/28 08:01:36;;;;;;;15.70;13.83;;;14.50;99.90;;;;;;4592212;19;20047;-35
2022/09/28 08:03:07;;;;;;;16.23;13.57;;;14.50;99.90;;;;;;4590905;19;20015;-36
2022/09/28 08:04:40;;;;;;;15.07;12.45;;;14.40;99.90;;;;;;4590846;19;20015;-34